sensor_id;sensor_type;location;lat;lon;timestamp;pressure;altitude;pressure_sealevel;temperature;humidity
21555;BME280;10938;44.794;-0.676;2023-02-13T00:00:19;102633.53;;;7.96;80.85
21555;BME280;10938;44.794;-0.676;2023-02-13T00:02:47;102627.28;;;7.92;81.80
21555;BME280;10938;44.794;-0.676;2023-02-13T00:05:13;102631.41;;;7.89;81.51
21555;BME280;10938;44.794;-0.676;2023-02-13T00:07:38;102636.59;;;7.89;82.29
21555;BME280;10938;44.794;-0.676;2023-02-13T00:10:04;102637.78;;;7.94;82.33
21555;BME280;10938;44.794;-0.676;2023-02-13T00:12:30;102632.31;;;7.89;82.36
21555;BME280;10938;44.794;-0.676;2023-02-13T00:14:55;102628.97;;;7.92;81.89
21555;BME280;10938;44.794;-0.676;2023-02-13T00:17:20;102632.88;;;7.84;83.39
21555;BME280;10938;44.794;-0.676;2023-02-13T00:19:46;102632.63;;;7.79;82.44
21555;BME280;10938;44.794;-0.676;2023-02-13T00:22:11;102634.25;;;7.77;82.44
21555;BME280;10938;44.794;-0.676;2023-02-13T00:24:36;102633.19;;;7.73;82.31
21555;BME280;10938;44.794;-0.676;2023-02-13T00:27:02;102626.09;;;7.71;83.06
21555;BME280;10938;44.794;-0.676;2023-02-13T00:29:27;102629.38;;;7.67;83.04
21555;BME280;10938;44.794;-0.676;2023-02-13T00:31:53;102624.63;;;7.60;83.38
21555;BME280;10938;44.794;-0.676;2023-02-13T00:34:18;102628.81;;;7.58;83.62
21555;BME280;10938;44.794;-0.676;2023-02-13T00:36:43;102623.47;;;7.55;84.26
21555;BME280;10938;44.794;-0.676;2023-02-13T00:39:12;102631.41;;;7.58;83.84
21555;BME280;10938;44.794;-0.676;2023-02-13T00:41:38;102631.25;;;7.55;84.53
21555;BME280;10938;44.794;-0.676;2023-02-13T00:44:03;102632.56;;;7.47;85.59
21555;BME280;10938;44.794;-0.676;2023-02-13T00:46:29;102628.00;;;7.43;85.83
21555;BME280;10938;44.794;-0.676;2023-02-13T00:48:57;102633.28;;;7.30;87.47
21555;BME280;10938;44.794;-0.676;2023-02-13T00:51:22;102623.25;;;7.36;85.78
21555;BME280;10938;44.794;-0.676;2023-02-13T00:53:48;102627.81;;;7.40;85.12
21555;BME280;10938;44.794;-0.676;2023-02-13T00:56:13;102621.63;;;7.38;84.95
21555;BME280;10938;44.794;-0.676;2023-02-13T00:58:38;102627.56;;;7.35;85.66
21555;BME280;10938;44.794;-0.676;2023-02-13T01:01:04;102630.78;;;7.31;85.43
21555;BME280;10938;44.794;-0.676;2023-02-13T01:03:29;102623.88;;;7.32;86.30
21555;BME280;10938;44.794;-0.676;2023-02-13T01:05:56;102624.16;;;7.36;85.88
21555;BME280;10938;44.794;-0.676;2023-02-13T01:08:22;102632.75;;;7.20;88.87
21555;BME280;10938;44.794;-0.676;2023-02-13T01:10:48;102641.97;;;7.30;88.15
21555;BME280;10938;44.794;-0.676;2023-02-13T01:13:15;102632.66;;;7.34;86.70
21555;BME280;10938;44.794;-0.676;2023-02-13T01:15:43;102632.28;;;7.28;87.74
21555;BME280;10938;44.794;-0.676;2023-02-13T01:18:09;102645.53;;;7.17;88.09
21555;BME280;10938;44.794;-0.676;2023-02-13T01:20:36;102646.44;;;7.18;87.58
21555;BME280;10938;44.794;-0.676;2023-02-13T01:23:02;102642.16;;;7.18;87.47
21555;BME280;10938;44.794;-0.676;2023-02-13T01:25:27;102651.38;;;7.13;88.10
21555;BME280;10938;44.794;-0.676;2023-02-13T01:27:52;102648.78;;;7.13;87.78
21555;BME280;10938;44.794;-0.676;2023-02-13T01:30:18;102654.31;;;7.19;87.63
21555;BME280;10938;44.794;-0.676;2023-02-13T01:32:45;102662.09;;;7.19;87.54
21555;BME280;10938;44.794;-0.676;2023-02-13T01:35:11;102655.91;;;7.17;86.97
21555;BME280;10938;44.794;-0.676;2023-02-13T01:37:37;102656.75;;;7.16;87.32
21555;BME280;10938;44.794;-0.676;2023-02-13T01:40:04;102662.84;;;7.17;87.23
21555;BME280;10938;44.794;-0.676;2023-02-13T01:42:32;102666.28;;;7.17;86.77
21555;BME280;10938;44.794;-0.676;2023-02-13T01:45:04;102657.09;;;7.08;86.76
21555;BME280;10938;44.794;-0.676;2023-02-13T01:47:39;102662.09;;;7.05;87.60
21555;BME280;10938;44.794;-0.676;2023-02-13T01:50:23;102650.69;;;6.87;88.90
21555;BME280;10938;44.794;-0.676;2023-02-13T01:52:55;102651.88;;;6.64;92.30
21555;BME280;10938;44.794;-0.676;2023-02-13T01:55:23;102651.25;;;6.53;94.39
21555;BME280;10938;44.794;-0.676;2023-02-13T01:57:56;102651.94;;;6.51;96.35
21555;BME280;10938;44.794;-0.676;2023-02-13T02:00:23;102641.19;;;6.72;94.11
21555;BME280;10938;44.794;-0.676;2023-02-13T02:03:03;102649.50;;;6.82;92.32
21555;BME280;10938;44.794;-0.676;2023-02-13T02:05:31;102653.97;;;6.84;92.12
21555;BME280;10938;44.794;-0.676;2023-02-13T02:07:59;102662.44;;;6.82;90.98
21555;BME280;10938;44.794;-0.676;2023-02-13T02:10:26;102658.53;;;6.88;90.86
21555;BME280;10938;44.794;-0.676;2023-02-13T02:13:03;102659.31;;;6.87;91.05
21555;BME280;10938;44.794;-0.676;2023-02-13T02:15:30;102665.50;;;6.89;90.23
21555;BME280;10938;44.794;-0.676;2023-02-13T02:17:55;102660.03;;;6.85;89.57
21555;BME280;10938;44.794;-0.676;2023-02-13T02:43:24;102648.53;;;6.80;91.58
21555;BME280;10938;44.794;-0.676;2023-02-13T02:49:22;102650.09;;;6.78;91.56
21555;BME280;10938;44.794;-0.676;2023-02-13T02:57:19;102653.41;;;6.75;93.50
21555;BME280;10938;44.794;-0.676;2023-02-13T02:59:47;102656.00;;;6.75;92.36
21555;BME280;10938;44.794;-0.676;2023-02-13T03:02:32;102653.97;;;6.69;92.01
21555;BME280;10938;44.794;-0.676;2023-02-13T03:05:29;102654.47;;;6.64;91.49
21555;BME280;10938;44.794;-0.676;2023-02-13T03:08:15;102665.56;;;6.61;91.22
21555;BME280;10938;44.794;-0.676;2023-02-13T03:11:01;102662.16;;;6.62;91.14
21555;BME280;10938;44.794;-0.676;2023-02-13T03:13:47;102660.19;;;6.58;91.02
21555;BME280;10938;44.794;-0.676;2023-02-13T03:16:17;102667.19;;;6.59;91.60
21555;BME280;10938;44.794;-0.676;2023-02-13T03:19:02;102665.38;;;6.58;91.37
21555;BME280;10938;44.794;-0.676;2023-02-13T03:21:50;102669.22;;;6.50;91.96
21555;BME280;10938;44.794;-0.676;2023-02-13T03:25:17;102672.84;;;6.54;92.90
21555;BME280;10938;44.794;-0.676;2023-02-13T03:27:58;102670.31;;;6.41;93.86
21555;BME280;10938;44.794;-0.676;2023-02-13T03:36:42;102690.97;;;6.39;91.67
21555;BME280;10938;44.794;-0.676;2023-02-13T03:39:39;102687.84;;;6.30;93.54
21555;BME280;10938;44.794;-0.676;2023-02-13T03:42:22;102678.25;;;6.29;93.17
21555;BME280;10938;44.794;-0.676;2023-02-13T03:44:56;102689.53;;;6.30;94.48
21555;BME280;10938;44.794;-0.676;2023-02-13T03:47:42;102673.25;;;6.32;94.37
21555;BME280;10938;44.794;-0.676;2023-02-13T03:50:09;102688.63;;;6.29;93.92
21555;BME280;10938;44.794;-0.676;2023-02-13T03:53:00;102676.75;;;6.33;94.78
21555;BME280;10938;44.794;-0.676;2023-02-13T03:55:32;102684.22;;;6.28;95.53
21555;BME280;10938;44.794;-0.676;2023-02-13T03:58:22;102685.22;;;6.02;99.84
21555;BME280;10938;44.794;-0.676;2023-02-13T04:01:08;102683.03;;;5.95;100.00
21555;BME280;10938;44.794;-0.676;2023-02-13T04:03:43;102684.13;;;5.99;100.00
21555;BME280;10938;44.794;-0.676;2023-02-13T04:06:15;102684.44;;;6.03;99.89
21555;BME280;10938;44.794;-0.676;2023-02-13T04:08:42;102690.38;;;6.02;100.00
21555;BME280;10938;44.794;-0.676;2023-02-13T04:11:14;102681.59;;;6.13;99.81
21555;BME280;10938;44.794;-0.676;2023-02-13T04:16:16;102683.16;;;6.25;99.89
21555;BME280;10938;44.794;-0.676;2023-02-13T04:18:43;102687.34;;;6.22;99.78
21555;BME280;10938;44.794;-0.676;2023-02-13T04:21:09;102675.00;;;6.18;99.11
21555;BME280;10938;44.794;-0.676;2023-02-13T04:23:34;102683.38;;;6.14;98.23
21555;BME280;10938;44.794;-0.676;2023-02-13T04:26:03;102675.50;;;5.59;100.00
21555;BME280;10938;44.794;-0.676;2023-02-13T04:28:30;102681.16;;;5.27;100.00
21555;BME280;10938;44.794;-0.676;2023-02-13T04:30:56;102688.44;;;5.46;100.00
21555;BME280;10938;44.794;-0.676;2023-02-13T04:33:22;102690.03;;;5.57;100.00
21555;BME280;10938;44.794;-0.676;2023-02-13T04:35:48;102690.22;;;5.60;100.00
21555;BME280;10938;44.794;-0.676;2023-02-13T04:38:13;102687.63;;;5.60;100.00
21555;BME280;10938;44.794;-0.676;2023-02-13T04:40:38;102690.81;;;5.56;100.00
21555;BME280;10938;44.794;-0.676;2023-02-13T04:43:04;102691.09;;;5.47;100.00
21555;BME280;10938;44.794;-0.676;2023-02-13T04:45:29;102693.91;;;5.63;100.00
21555;BME280;10938;44.794;-0.676;2023-02-13T04:47:56;102705.84;;;5.48;100.00
21555;BME280;10938;44.794;-0.676;2023-02-13T04:50:22;102709.91;;;5.45;100.00
21555;BME280;10938;44.794;-0.676;2023-02-13T04:52:52;102699.88;;;5.62;100.00
21555;BME280;10938;44.794;-0.676;2023-02-13T04:55:18;102704.47;;;5.40;100.00
21555;BME280;10938;44.794;-0.676;2023-02-13T04:57:43;102711.03;;;4.97;100.00
21555;BME280;10938;44.794;-0.676;2023-02-13T05:00:09;102705.56;;;4.93;100.00
21555;BME280;10938;44.794;-0.676;2023-02-13T05:02:35;102709.06;;;4.93;100.00
21555;BME280;10938;44.794;-0.676;2023-02-13T05:05:00;102712.81;;;4.98;100.00
21555;BME280;10938;44.794;-0.676;2023-02-13T05:07:25;102705.41;;;5.03;100.00
21555;BME280;10938;44.794;-0.676;2023-02-13T05:09:51;102703.44;;;4.87;100.00
21555;BME280;10938;44.794;-0.676;2023-02-13T05:12:16;102700.31;;;5.17;100.00
21555;BME280;10938;44.794;-0.676;2023-02-13T05:14:42;102699.59;;;4.94;100.00
21555;BME280;10938;44.794;-0.676;2023-02-13T05:17:07;102711.78;;;4.70;100.00
21555;BME280;10938;44.794;-0.676;2023-02-13T05:19:33;102712.81;;;4.98;100.00
21555;BME280;10938;44.794;-0.676;2023-02-13T05:21:58;102710.28;;;5.25;100.00
21555;BME280;10938;44.794;-0.676;2023-02-13T05:24:42;102711.09;;;5.24;100.00
21555;BME280;10938;44.794;-0.676;2023-02-13T05:27:08;102709.28;;;5.09;100.00
21555;BME280;10938;44.794;-0.676;2023-02-13T05:29:33;102716.84;;;5.19;100.00
21555;BME280;10938;44.794;-0.676;2023-02-13T05:31:58;102713.63;;;5.10;100.00
21555;BME280;10938;44.794;-0.676;2023-02-13T05:34:25;102726.16;;;5.04;100.00
21555;BME280;10938;44.794;-0.676;2023-02-13T05:36:51;102722.31;;;5.24;100.00
21555;BME280;10938;44.794;-0.676;2023-02-13T05:39:17;102722.94;;;5.33;100.00
21555;BME280;10938;44.794;-0.676;2023-02-13T05:41:44;102724.72;;;5.60;100.00
21555;BME280;10938;44.794;-0.676;2023-02-13T05:44:10;102728.13;;;5.46;100.00
21555;BME280;10938;44.794;-0.676;2023-02-13T05:46:38;102724.66;;;5.46;100.00
21555;BME280;10938;44.794;-0.676;2023-02-13T05:49:04;102729.78;;;5.19;100.00
21555;BME280;10938;44.794;-0.676;2023-02-13T05:51:30;102729.09;;;5.48;100.00
21555;BME280;10938;44.794;-0.676;2023-02-13T05:53:56;102730.22;;;5.52;100.00
21555;BME280;10938;44.794;-0.676;2023-02-13T05:56:21;102723.63;;;5.31;100.00
21555;BME280;10938;44.794;-0.676;2023-02-13T05:58:50;102725.03;;;5.26;100.00
21555;BME280;10938;44.794;-0.676;2023-02-13T06:01:16;102732.91;;;5.53;100.00
21555;BME280;10938;44.794;-0.676;2023-02-13T06:03:42;102731.22;;;5.67;100.00
21555;BME280;10938;44.794;-0.676;2023-02-13T06:06:07;102726.63;;;5.76;100.00
21555;BME280;10938;44.794;-0.676;2023-02-13T06:08:32;102730.34;;;5.02;100.00
21555;BME280;10938;44.794;-0.676;2023-02-13T06:10:58;102727.22;;;5.46;100.00
21555;BME280;10938;44.794;-0.676;2023-02-13T06:13:23;102727.44;;;5.62;100.00
21555;BME280;10938;44.794;-0.676;2023-02-13T06:15:49;102722.59;;;5.15;100.00
21555;BME280;10938;44.794;-0.676;2023-02-13T06:18:15;102721.69;;;4.77;100.00
21555;BME280;10938;44.794;-0.676;2023-02-13T06:20:41;102722.34;;;4.61;100.00
21555;BME280;10938;44.794;-0.676;2023-02-13T06:23:06;102725.38;;;4.81;100.00
21555;BME280;10938;44.794;-0.676;2023-02-13T06:25:34;102719.81;;;5.12;100.00
21555;BME280;10938;44.794;-0.676;2023-02-13T06:27:59;102729.03;;;4.96;100.00
21555;BME280;10938;44.794;-0.676;2023-02-13T06:30:25;102739.16;;;4.68;100.00
21555;BME280;10938;44.794;-0.676;2023-02-13T06:32:51;102734.69;;;4.90;100.00
21555;BME280;10938;44.794;-0.676;2023-02-13T06:35:16;102731.50;;;5.32;100.00
21555;BME280;10938;44.794;-0.676;2023-02-13T06:37:42;102735.00;;;5.08;100.00
21555;BME280;10938;44.794;-0.676;2023-02-13T06:40:12;102745.06;;;5.03;100.00
21555;BME280;10938;44.794;-0.676;2023-02-13T06:42:37;102749.97;;;4.62;100.00
21555;BME280;10938;44.794;-0.676;2023-02-13T06:45:03;102742.34;;;5.27;100.00
21555;BME280;10938;44.794;-0.676;2023-02-13T06:47:29;102751.88;;;5.54;100.00
21555;BME280;10938;44.794;-0.676;2023-02-13T06:49:54;102743.59;;;5.07;100.00
21555;BME280;10938;44.794;-0.676;2023-02-13T06:52:20;102747.94;;;5.08;100.00
21555;BME280;10938;44.794;-0.676;2023-02-13T06:54:45;102738.66;;;5.23;100.00
21555;BME280;10938;44.794;-0.676;2023-02-13T06:57:10;102757.50;;;5.09;100.00
21555;BME280;10938;44.794;-0.676;2023-02-13T06:59:36;102756.66;;;5.35;100.00
21555;BME280;10938;44.794;-0.676;2023-02-13T07:02:01;102756.66;;;5.61;100.00
21555;BME280;10938;44.794;-0.676;2023-02-13T07:04:27;102761.25;;;5.01;100.00
21555;BME280;10938;44.794;-0.676;2023-02-13T07:06:56;102764.03;;;5.42;100.00
21555;BME280;10938;44.794;-0.676;2023-02-13T07:09:22;102772.91;;;5.20;100.00
21555;BME280;10938;44.794;-0.676;2023-02-13T07:11:47;102766.38;;;5.26;100.00
21555;BME280;10938;44.794;-0.676;2023-02-13T07:14:13;102768.94;;;5.12;100.00
21555;BME280;10938;44.794;-0.676;2023-02-13T07:16:38;102770.16;;;5.31;100.00
21555;BME280;10938;44.794;-0.676;2023-02-13T07:19:04;102770.97;;;5.30;100.00
21555;BME280;10938;44.794;-0.676;2023-02-13T07:21:29;102776.81;;;5.27;100.00
21555;BME280;10938;44.794;-0.676;2023-02-13T07:23:55;102773.78;;;5.59;100.00
21555;BME280;10938;44.794;-0.676;2023-02-13T07:26:20;102775.03;;;5.26;100.00
21555;BME280;10938;44.794;-0.676;2023-02-13T07:28:45;102774.16;;;5.39;100.00
21555;BME280;10938;44.794;-0.676;2023-02-13T07:31:11;102775.16;;;5.54;100.00
21555;BME280;10938;44.794;-0.676;2023-02-13T07:33:36;102776.41;;;5.98;100.00
21555;BME280;10938;44.794;-0.676;2023-02-13T07:36:03;102781.13;;;6.45;100.00
21555;BME280;10938;44.794;-0.676;2023-02-13T07:38:29;102775.56;;;6.39;100.00
21555;BME280;10938;44.794;-0.676;2023-02-13T07:41:07;102777.09;;;6.63;100.00
21555;BME280;10938;44.794;-0.676;2023-02-13T07:43:33;102779.72;;;6.50;100.00
21555;BME280;10938;44.794;-0.676;2023-02-13T07:45:59;102774.44;;;6.76;100.00
21555;BME280;10938;44.794;-0.676;2023-02-13T07:48:25;102770.22;;;7.64;100.00
21555;BME280;10938;44.794;-0.676;2023-02-13T07:51:01;102782.56;;;7.83;100.00
21555;BME280;10938;44.794;-0.676;2023-02-13T07:53:27;102774.34;;;9.00;100.00
21555;BME280;10938;44.794;-0.676;2023-02-13T07:55:53;102768.69;;;10.29;100.00
21555;BME280;10938;44.794;-0.676;2023-02-13T07:58:18;102770.16;;;10.61;100.00
21555;BME280;10938;44.794;-0.676;2023-02-13T08:00:44;102774.44;;;9.87;100.00
21555;BME280;10938;44.794;-0.676;2023-02-13T08:03:09;102777.34;;;9.93;100.00
21555;BME280;10938;44.794;-0.676;2023-02-13T08:05:35;102783.06;;;9.86;100.00
21555;BME280;10938;44.794;-0.676;2023-02-13T08:08:01;102779.28;;;9.12;100.00
21555;BME280;10938;44.794;-0.676;2023-02-13T08:10:27;102775.44;;;9.21;100.00
21555;BME280;10938;44.794;-0.676;2023-02-13T08:13:12;102771.94;;;9.37;100.00
21555;BME280;10938;44.794;-0.676;2023-02-13T08:15:38;102776.63;;;9.62;100.00
21555;BME280;10938;44.794;-0.676;2023-02-13T08:18:04;102781.03;;;9.98;100.00
21555;BME280;10938;44.794;-0.676;2023-02-13T08:20:30;102780.41;;;9.33;100.00
21555;BME280;10938;44.794;-0.676;2023-02-13T08:23:02;102782.97;;;10.02;100.00
21555;BME280;10938;44.794;-0.676;2023-02-13T08:25:28;102777.16;;;9.05;100.00
21555;BME280;10938;44.794;-0.676;2023-02-13T08:27:54;102788.56;;;9.57;100.00
21555;BME280;10938;44.794;-0.676;2023-02-13T08:30:19;102780.81;;;9.24;100.00
21555;BME280;10938;44.794;-0.676;2023-02-13T08:32:44;102784.81;;;9.52;100.00
21555;BME280;10938;44.794;-0.676;2023-02-13T08:35:10;102786.41;;;9.83;100.00
21555;BME280;10938;44.794;-0.676;2023-02-13T08:37:35;102785.38;;;10.15;100.00
21555;BME280;10938;44.794;-0.676;2023-02-13T08:40:01;102783.66;;;9.98;100.00
21555;BME280;10938;44.794;-0.676;2023-02-13T08:42:27;102782.72;;;9.45;100.00
21555;BME280;10938;44.794;-0.676;2023-02-13T08:44:52;102793.63;;;10.24;100.00
21555;BME280;10938;44.794;-0.676;2023-02-13T08:47:18;102783.34;;;9.92;100.00
21555;BME280;10938;44.794;-0.676;2023-02-13T08:49:43;102780.00;;;10.67;100.00
21555;BME280;10938;44.794;-0.676;2023-02-13T08:52:08;102788.28;;;9.86;100.00
21555;BME280;10938;44.794;-0.676;2023-02-13T08:54:34;102787.97;;;10.51;100.00
21555;BME280;10938;44.794;-0.676;2023-02-13T08:57:00;102793.34;;;9.83;100.00
21555;BME280;10938;44.794;-0.676;2023-02-13T08:59:25;102790.06;;;9.87;100.00
21555;BME280;10938;44.794;-0.676;2023-02-13T09:01:51;102791.34;;;10.30;100.00
21555;BME280;10938;44.794;-0.676;2023-02-13T09:04:16;102803.91;;;10.21;100.00
21555;BME280;10938;44.794;-0.676;2023-02-13T09:06:45;102804.38;;;9.44;100.00
21555;BME280;10938;44.794;-0.676;2023-02-13T09:09:10;102793.41;;;9.51;100.00
21555;BME280;10938;44.794;-0.676;2023-02-13T09:11:36;102796.91;;;10.03;100.00
21555;BME280;10938;44.794;-0.676;2023-02-13T09:14:02;102782.06;;;9.84;100.00
21555;BME280;10938;44.794;-0.676;2023-02-13T09:16:27;102787.22;;;9.65;100.00
21555;BME280;10938;44.794;-0.676;2023-02-13T09:18:53;102790.00;;;10.03;100.00
21555;BME280;10938;44.794;-0.676;2023-02-13T09:21:20;102788.78;;;10.50;100.00
21555;BME280;10938;44.794;-0.676;2023-02-13T09:23:46;102788.00;;;10.15;100.00
21555;BME280;10938;44.794;-0.676;2023-02-13T09:26:13;102780.88;;;11.46;100.00
21555;BME280;10938;44.794;-0.676;2023-02-13T09:28:40;102782.56;;;11.04;100.00
21555;BME280;10938;44.794;-0.676;2023-02-13T09:31:11;102792.66;;;10.77;100.00
21555;BME280;10938;44.794;-0.676;2023-02-13T09:33:39;102794.44;;;10.41;100.00
21555;BME280;10938;44.794;-0.676;2023-02-13T09:36:06;102790.94;;;10.05;100.00
21555;BME280;10938;44.794;-0.676;2023-02-13T09:38:33;102793.44;;;10.20;100.00
21555;BME280;10938;44.794;-0.676;2023-02-13T09:41:05;102796.06;;;10.76;100.00
21555;BME280;10938;44.794;-0.676;2023-02-13T09:43:39;102796.91;;;11.13;100.00
21555;BME280;10938;44.794;-0.676;2023-02-13T09:46:32;102794.06;;;11.49;100.00
21555;BME280;10938;44.794;-0.676;2023-02-13T09:48:59;102797.63;;;11.11;100.00
21555;BME280;10938;44.794;-0.676;2023-02-13T09:51:26;102805.03;;;11.80;100.00
21555;BME280;10938;44.794;-0.676;2023-02-13T09:54:01;102804.53;;;11.49;100.00
21555;BME280;10938;44.794;-0.676;2023-02-13T10:02:01;102814.16;;;11.50;100.00
21555;BME280;10938;44.794;-0.676;2023-02-13T10:04:47;102820.44;;;11.55;100.00
21555;BME280;10938;44.794;-0.676;2023-02-13T10:18:16;102822.88;;;11.90;100.00
21555;BME280;10938;44.794;-0.676;2023-02-13T10:20:47;102812.59;;;12.60;100.00
21555;BME280;10938;44.794;-0.676;2023-02-13T10:25:55;102820.75;;;11.81;100.00
21555;BME280;10938;44.794;-0.676;2023-02-13T10:28:29;102818.50;;;12.11;100.00
21555;BME280;10938;44.794;-0.676;2023-02-13T10:31:03;102812.78;;;12.88;100.00
21555;BME280;10938;44.794;-0.676;2023-02-13T10:33:35;102808.03;;;12.54;100.00
21555;BME280;10938;44.794;-0.676;2023-02-13T10:36:14;102813.84;;;12.93;100.00
21555;BME280;10938;44.794;-0.676;2023-02-13T10:39:00;102816.81;;;12.56;100.00
21555;BME280;10938;44.794;-0.676;2023-02-13T10:58:20;102818.97;;;12.90;100.00
21555;BME280;10938;44.794;-0.676;2023-02-13T11:01:11;102813.97;;;13.44;100.00
21555;BME280;10938;44.794;-0.676;2023-02-13T11:03:39;102821.00;;;13.70;100.00
21555;BME280;10938;44.794;-0.676;2023-02-13T11:06:07;102824.94;;;14.09;100.00
21555;BME280;10938;44.794;-0.676;2023-02-13T11:08:42;102816.66;;;13.70;100.00
21555;BME280;10938;44.794;-0.676;2023-02-13T11:11:36;102815.59;;;14.17;100.00
21555;BME280;10938;44.794;-0.676;2023-02-13T11:14:23;102813.09;;;13.95;100.00
21555;BME280;10938;44.794;-0.676;2023-02-13T11:19:39;102812.53;;;14.05;100.00
21555;BME280;10938;44.794;-0.676;2023-02-13T11:22:13;102809.19;;;14.36;100.00
21555;BME280;10938;44.794;-0.676;2023-02-13T11:24:41;102808.41;;;13.60;100.00
21555;BME280;10938;44.794;-0.676;2023-02-13T11:27:14;102800.44;;;13.57;100.00
21555;BME280;10938;44.794;-0.676;2023-02-13T11:29:57;102799.16;;;14.24;100.00
21555;BME280;10938;44.794;-0.676;2023-02-13T11:32:25;102793.78;;;14.20;100.00
21555;BME280;10938;44.794;-0.676;2023-02-13T11:34:51;102795.19;;;14.09;100.00
21555;BME280;10938;44.794;-0.676;2023-02-13T11:37:27;102802.25;;;14.38;100.00
21555;BME280;10938;44.794;-0.676;2023-02-13T11:39:58;102797.44;;;13.98;100.00
21555;BME280;10938;44.794;-0.676;2023-02-13T11:45:19;102783.06;;;14.12;100.00
21555;BME280;10938;44.794;-0.676;2023-02-13T11:47:46;102786.25;;;14.57;100.00
21555;BME280;10938;44.794;-0.676;2023-02-13T11:50:25;102769.28;;;14.46;100.00
21555;BME280;10938;44.794;-0.676;2023-02-13T11:53:03;102781.56;;;14.20;100.00
21555;BME280;10938;44.794;-0.676;2023-02-13T11:55:38;102781.66;;;14.23;100.00
21555;BME280;10938;44.794;-0.676;2023-02-13T12:00:39;102766.88;;;14.54;99.15
21555;BME280;10938;44.794;-0.676;2023-02-13T12:06:12;102764.09;;;14.48;100.00
21555;BME280;10938;44.794;-0.676;2023-02-13T12:08:40;102757.59;;;14.96;98.59
21555;BME280;10938;44.794;-0.676;2023-02-13T12:14:03;102749.91;;;14.72;97.72
21555;BME280;10938;44.794;-0.676;2023-02-13T12:16:33;102742.50;;;14.89;96.93
21555;BME280;10938;44.794;-0.676;2023-02-13T12:19:05;102751.59;;;15.00;95.42
21555;BME280;10938;44.794;-0.676;2023-02-13T12:24:03;102747.03;;;15.26;94.87
21555;BME280;10938;44.794;-0.676;2023-02-13T12:26:39;102749.72;;;15.27;92.94
21555;BME280;10938;44.794;-0.676;2023-02-13T12:31:57;102737.47;;;15.62;89.91
21555;BME280;10938;44.794;-0.676;2023-02-13T12:37:43;102734.13;;;15.68;88.01
21555;BME280;10938;44.794;-0.676;2023-02-13T12:45:47;102732.19;;;15.61;86.75
21555;BME280;10938;44.794;-0.676;2023-02-13T13:01:53;102710.28;;;15.98;81.68
21555;BME280;10938;44.794;-0.676;2023-02-13T13:10:09;102705.03;;;15.98;71.85
21555;BME280;10938;44.794;-0.676;2023-02-13T13:23:03;102688.53;;;16.48;71.56
21555;BME280;10938;44.794;-0.676;2023-02-13T13:28:15;102679.91;;;16.98;69.90
21555;BME280;10938;44.794;-0.676;2023-02-13T13:30:42;102678.94;;;16.93;68.74
21555;BME280;10938;44.794;-0.676;2023-02-13T13:33:26;102675.53;;;17.51;68.21
21555;BME280;10938;44.794;-0.676;2023-02-13T13:44:13;102668.34;;;17.98;50.93
21555;BME280;10938;44.794;-0.676;2023-02-13T13:47:04;102666.09;;;17.61;52.00
21555;BME280;10938;44.794;-0.676;2023-02-13T13:49:50;102667.06;;;17.68;55.41
21555;BME280;10938;44.794;-0.676;2023-02-13T13:52:27;102668.81;;;18.32;53.46
21555;BME280;10938;44.794;-0.676;2023-02-13T13:54:54;102660.47;;;18.68;51.28
21555;BME280;10938;44.794;-0.676;2023-02-13T13:57:24;102661.44;;;18.79;51.63
21555;BME280;10938;44.794;-0.676;2023-02-13T14:07:47;102651.97;;;18.22;45.17
21555;BME280;10938;44.794;-0.676;2023-02-13T14:13:05;102655.81;;;17.82;46.58
21555;BME280;10938;44.794;-0.676;2023-02-13T14:20:50;102651.91;;;18.19;47.44
21555;BME280;10938;44.794;-0.676;2023-02-13T14:29:25;102648.47;;;18.25;48.62
21555;BME280;10938;44.794;-0.676;2023-02-13T14:31:31;102645.94;;;18.32;48.24
21555;BME280;10938;44.794;-0.676;2023-02-13T14:36:30;102657.13;;;18.85;44.75
21555;BME280;10938;44.794;-0.676;2023-02-13T14:39:00;102645.72;;;18.88;44.46
21555;BME280;10938;44.794;-0.676;2023-02-13T14:46:46;102637.00;;;18.99;44.74
21555;BME280;10938;44.794;-0.676;2023-02-13T14:49:22;102630.50;;;18.69;46.58
21555;BME280;10938;44.794;-0.676;2023-02-13T14:51:52;102635.53;;;19.36;42.42
21555;BME280;10938;44.794;-0.676;2023-02-13T14:56:58;102639.31;;;18.65;40.87
21555;BME280;10938;44.794;-0.676;2023-02-13T14:59:28;102632.78;;;18.37;42.02
21555;BME280;10938;44.794;-0.676;2023-02-13T15:02:03;102626.19;;;18.74;41.98
21555;BME280;10938;44.794;-0.676;2023-02-13T15:04:48;102628.25;;;19.08;41.17
21555;BME280;10938;44.794;-0.676;2023-02-13T15:07:28;102627.69;;;19.41;40.74
21555;BME280;10938;44.794;-0.676;2023-02-13T15:10:03;102622.44;;;19.50;40.58
21555;BME280;10938;44.794;-0.676;2023-02-13T15:12:34;102618.19;;;19.73;40.91
21555;BME280;10938;44.794;-0.676;2023-02-13T15:15:02;102609.03;;;19.32;42.16
21555;BME280;10938;44.794;-0.676;2023-02-13T15:17:30;102608.63;;;20.05;40.89
21555;BME280;10938;44.794;-0.676;2023-02-13T15:22:34;102615.72;;;18.86;41.03
21555;BME280;10938;44.794;-0.676;2023-02-13T15:25:02;102615.88;;;19.01;41.51
21555;BME280;10938;44.794;-0.676;2023-02-13T15:27:30;102614.03;;;18.94;41.28
21555;BME280;10938;44.794;-0.676;2023-02-13T15:32:35;102608.06;;;19.19;41.07
21555;BME280;10938;44.794;-0.676;2023-02-13T15:35:30;102609.00;;;19.24;41.06
21555;BME280;10938;44.794;-0.676;2023-02-13T15:37:57;102602.75;;;19.15;42.38
21555;BME280;10938;44.794;-0.676;2023-02-13T15:40:26;102608.28;;;19.40;41.68
21555;BME280;10938;44.794;-0.676;2023-02-13T15:42:53;102605.47;;;19.25;41.80
21555;BME280;10938;44.794;-0.676;2023-02-13T15:45:20;102601.25;;;19.48;40.67
21555;BME280;10938;44.794;-0.676;2023-02-13T15:47:47;102606.53;;;19.48;41.22
21555;BME280;10938;44.794;-0.676;2023-02-13T15:50:48;102608.25;;;18.47;43.21
21555;BME280;10938;44.794;-0.676;2023-02-13T15:53:12;102606.41;;;19.33;41.28
21555;BME280;10938;44.794;-0.676;2023-02-13T15:55:39;102610.94;;;19.43;40.29